Portada
METAR-TAF:

METAR-TAF

Aeroports :

David, Panamà

latitud: 08-24N, longitud: 082-25W, altitud: 29 m

Observació

L'informe es va fer fa 1 hora i 2 minuts, a les 17:00 UTC
Vent 5 kt amb direcció variable
Temperatura 31°C
Humitat 59%
Pressió 1012 hPa
Visibilitat 10 km o més
Núvols disperses a una alçada de 2000 ft

METAR: MPDA 221700Z VRB05KT 9999 SCT020 31/22 Q1012

Hora: 13:02 (18:02 UTC)

Pronòstic

L'informe es va fer fa 1 hora i 2 minuts, a les 17:00 UTC
Pronòstic vàlid del 22 a les 18 UTC al 23 a les 06 UTC
Vent 6 kt del Sud-Oest
Visibilitat 10 km o més
Núvols disperses a una alçada de 1800 ft
Probabilitat 30% :
Temporalment
l' 22 a les 20 UTC al 22 a les 24 UTC
Visibilitat: 6000 m
Núvols disperses a una alçada de 1500 ft, Cumulonimbus.
Núvols disperses a una alçada de 8000 ft
tempesta, pluja

TAF: MPDA 221700Z 2218/2306 22006KT 9999 SCT018 PROB30 TEMPO 2220/2224 6000 TSRA SCT015CB SCT080

Observacions i pronòstics meteorològics de més de 4000 aeroports (METAR i TAF).

Les estacions disponibles són els punts grocs i vermells al mapa.

Posi el ratolí al punt desitjat per veure el nom de l'estació.

Feu clic per veure les observacions i els pronòstics meteorològics.

Per canviar el mapa: feu clic els botons verds amb una creu de color negre per apropar; al botó verd amb un guió per allunyar la imatge; o en les fletxes verdes per a mapes adjacents.


METAR-TAF: